Wichita, Kansas
Current Conditions -  °F | °C
As of 3:35 AM on Thursday 18 Dec 2014 (Local Time) from KIAB Reporting Station
Freezing Drizzle Freezing Drizzle  
Wind Chill: 26°   Ceiling: 1000
Heat Index: 32°   Visibility: 5mi
Dew Point: 30°   Wind: 6mph
Humidity: 93%   Direction: 80°E
Pressure: 30.13"   Gusts: NA
Location:  37.69°N, 97.33°W
Report Text: KIAB 180935Z AUTO 08005KT 5SM R19/5000FT -FZDZ BR FEW004 OVC010 00/M01 A3013 RMK AO2 DZB0916E0918B0935SNE0915B0918E0934 CIG 010V012
Loading
Personal Weather Stations






























Interactive Weather Map New forecast layout! Learn more

10-Day Weather Forecast

Advertisements
Track Severe Weather on mobile